Time;durP1;ratioP1;P1;durP2;ratioP2;P2;SDS_P1;SDS_P2;PMS_P1;PMS_P2;Temp;Humidity;BMP_temperature;BMP_pressure;BME280_temperature;BME280_humidity;BME280_pressure;Samples;Min_cycle;Max_cycle;Signal;HPM_P1;HPM_P2
2023/03/18 00:01:10;;;;;;;3.47;2.10;;;;;;;;;;5033261;28;20450;-54
2023/03/18 00:03:36;;;;;;;6.73;1.70;;;;;;;;;;5030663;28;20462;-56
2023/03/18 00:06:20;;;;;;;6.77;2.10;;;;;;;;;;5030101;28;20732;-56
2023/03/18 00:08:52;;;;;;;2.90;1.50;;;;;;;;;;5004325;28;20478;-54
2023/03/18 00:11:18;;;;;;;3.07;1.63;;;;;;;;;;5032549;28;20951;-56
2023/03/18 00:13:45;;;;;;;3.40;2.00;;;;;;;;;;5007880;28;20438;-56
2023/03/18 00:16:11;;;;;;;5.37;1.93;;;;;;;;;;5037202;28;20466;-54
2023/03/18 00:18:38;;;;;;;3.03;1.60;;;;;;;;;;5031909;28;20573;-55
2023/03/18 00:21:04;;;;;;;4.93;2.30;;;;;;;;;;5035464;28;20632;-55
2023/03/18 00:23:30;;;;;;;2.10;1.63;;;;;;;;;;5005437;28;20438;-55
2023/03/18 00:25:56;;;;;;;5.33;2.07;;;;;;;;;;5067236;28;20482;-55
2023/03/18 00:28:22;;;;;;;3.90;1.70;;;;;;;;;;5009820;28;20994;-55
2023/03/18 00:30:48;;;;;;;3.73;1.57;;;;;;;;;;5030187;28;20438;-55
2023/03/18 00:33:15;;;;;;;4.67;2.00;;;;;;;;;;5014654;28;20438;-55
2023/03/18 00:35:41;;;;;;;3.40;1.37;;;;;;;;;;5032407;28;20431;-55
2023/03/18 00:38:08;;;;;;;3.10;1.63;;;;;;;;;;4990612;28;20481;-55
2023/03/18 00:40:52;;;;;;;3.40;1.90;;;;;;;;;;5037689;28;20442;-57
2023/03/18 00:43:20;;;;;;;2.30;1.80;;;;;;;;;;5013476;28;21039;-54
2023/03/18 00:45:47;;;;;;;3.63;2.00;;;;;;;;;;5037189;28;20446;-54
2023/03/18 00:48:14;;;;;;;2.33;1.07;;;;;;;;;;5029807;28;20434;-55
2023/03/18 00:50:40;;;;;;;3.53;1.43;;;;;;;;;;5035725;28;21187;-55
2023/03/18 00:53:06;;;;;;;4.13;1.77;;;;;;;;;;5006847;28;20454;-56
2023/03/18 00:55:32;;;;;;;2.17;1.50;;;;;;;;;;5033005;28;20790;-53
2023/03/18 00:57:58;;;;;;;4.87;1.80;;;;;;;;;;5007453;28;20853;-54
2023/03/18 01:00:25;;;;;;;3.80;1.87;;;;;;;;;;5033978;28;20430;-54
2023/03/18 01:02:51;;;;;;;2.90;1.60;;;;;;;;;;5015276;28;20451;-56
2023/03/18 01:05:17;;;;;;;3.03;1.57;;;;;;;;;;5030292;28;20446;-55
2023/03/18 01:07:43;;;;;;;4.97;1.97;;;;;;;;;;5002346;28;20867;-55
2023/03/18 01:10:10;;;;;;;2.43;1.47;;;;;;;;;;5031439;28;20942;-55
2023/03/18 01:12:36;;;;;;;2.80;1.60;;;;;;;;;;4980183;28;20462;-55
2023/03/18 01:15:03;;;;;;;2.33;1.33;;;;;;;;;;5032781;28;20447;-55
2023/03/18 01:17:30;;;;;;;1.33;1.23;;;;;;;;;;5036607;28;20578;-55
2023/03/18 01:19:56;;;;;;;4.03;1.30;;;;;;;;;;5035115;28;20444;-56
2023/03/18 01:22:23;;;;;;;2.67;1.47;;;;;;;;;;5027391;28;20506;-54
2023/03/18 01:24:49;;;;;;;2.00;1.43;;;;;;;;;;5025083;28;20990;-55
2023/03/18 01:27:15;;;;;;;2.67;1.30;;;;;;;;;;5033025;28;20442;-56
2023/03/18 01:29:41;;;;;;;2.87;1.50;;;;;;;;;;5014975;28;20473;-57
2023/03/18 01:32:08;;;;;;;13.33;1.93;;;;;;;;;;5041534;28;20431;-53
2023/03/18 01:34:34;;;;;;;1.80;1.23;;;;;;;;;;5018927;28;20500;-54
2023/03/18 01:37:02;;;;;;;3.00;1.30;;;;;;;;;;5024645;28;20474;-55
2023/03/18 01:39:28;;;;;;;2.97;1.60;;;;;;;;;;5034961;28;20450;-52
2023/03/18 01:41:54;;;;;;;2.40;1.40;;;;;;;;;;5034564;28;20825;-55
2023/03/18 01:44:21;;;;;;;3.87;1.60;;;;;;;;;;4992312;28;20448;-54
2023/03/18 01:46:47;;;;;;;7.70;1.40;;;;;;;;;;5034072;28;20513;-55
2023/03/18 01:49:16;;;;;;;2.00;1.20;;;;;;;;;;5033176;28;20458;-55
2023/03/18 01:51:43;;;;;;;3.00;1.30;;;;;;;;;;5035289;28;20458;-54
2023/03/18 01:54:09;;;;;;;1.60;1.27;;;;;;;;;;5013314;28;20438;-56
2023/03/18 01:56:35;;;;;;;2.60;1.37;;;;;;;;;;5031838;28;20490;-56
2023/03/18 01:59:01;;;;;;;1.63;1.23;;;;;;;;;;5032616;28;20460;-56
2023/03/18 02:01:30;;;;;;;2.40;1.30;;;;;;;;;;5034903;28;20423;-55
2023/03/18 02:03:56;;;;;;;1.70;1.10;;;;;;;;;;5004730;28;20932;-56
2023/03/18 02:06:23;;;;;;;3.30;1.53;;;;;;;;;;5037396;28;20489;-55
2023/03/18 02:08:49;;;;;;;3.27;1.50;;;;;;;;;;5026279;28;20445;-54
2023/03/18 02:11:15;;;;;;;3.30;1.50;;;;;;;;;;5046701;28;20438;-55
2023/03/18 02:13:42;;;;;;;2.63;1.50;;;;;;;;;;4997689;28;20809;-55
2023/03/18 02:16:26;;;;;;;2.10;1.30;;;;;;;;;;5034914;28;20593;-54
2023/03/18 02:18:56;;;;;;;3.47;1.10;;;;;;;;;;5034634;28;20438;-57
2023/03/18 02:21:28;;;;;;;1.83;1.30;;;;;;;;;;5034874;28;20529;-54
2023/03/18 02:24:00;;;;;;;1.97;1.60;;;;;;;;;;5022284;28;20461;-57
2023/03/18 02:26:32;;;;;;;2.23;1.30;;;;;;;;;;5037977;28;20438;-56
2023/03/18 02:29:00;;;;;;;3.40;1.60;;;;;;;;;;5031142;28;21040;-56
2023/03/18 02:31:26;;;;;;;2.13;1.57;;;;;;;;;;5028321;28;20515;-54
2023/03/18 02:33:52;;;;;;;3.30;1.93;;;;;;;;;;5026530;28;20430;-55
2023/03/18 02:36:18;;;;;;;3.53;1.53;;;;;;;;;;5038216;28;20515;-55
2023/03/18 02:38:45;;;;;;;2.47;1.33;;;;;;;;;;5008027;28;20434;-54
2023/03/18 02:41:14;;;;;;;3.13;1.13;;;;;;;;;;5032723;28;20453;-55
2023/03/18 02:43:41;;;;;;;2.60;1.50;;;;;;;;;;5033145;28;20450;-54
2023/03/18 02:46:19;;;;;;;3.27;1.70;;;;;;;;;;5038214;28;20483;-54
2023/03/18 02:48:45;;;;;;;3.10;1.67;;;;;;;;;;4999618;28;20446;-55
2023/03/18 02:51:12;;;;;;;3.37;1.40;;;;;;;;;;5032277;28;20470;-56
2023/03/18 02:53:38;;;;;;;2.10;1.30;;;;;;;;;;5013639;28;20675;-54
2023/03/18 02:56:04;;;;;;;2.50;1.53;;;;;;;;;;5035844;28;20530;-54
2023/03/18 02:58:31;;;;;;;2.70;1.50;;;;;;;;;;5034451;28;20984;-57
2023/03/18 03:00:57;;;;;;;3.03;1.63;;;;;;;;;;5027866;28;20791;-59
2023/03/18 03:03:23;;;;;;;3.20;1.30;;;;;;;;;;5019038;28;20430;-53
2023/03/18 03:05:49;;;;;;;3.60;1.50;;;;;;;;;;5035424;28;20438;-54
2023/03/18 03:08:15;;;;;;;2.30;1.53;;;;;;;;;;5015933;28;20608;-55
2023/03/18 03:10:41;;;;;;;5.87;1.40;;;;;;;;;;5038982;28;20573;-56
2023/03/18 03:13:08;;;;;;;2.77;1.17;;;;;;;;;;5012367;28;20449;-54
2023/03/18 03:15:35;;;;;;;1.73;1.13;;;;;;;;;;5052892;28;20434;-56
2023/03/18 03:18:02;;;;;;;1.60;1.13;;;;;;;;;;5012030;28;20564;-53
2023/03/18 03:20:31;;;;;;;2.83;1.50;;;;;;;;;;5034925;28;20468;-55
2023/03/18 03:22:57;;;;;;;2.53;1.43;;;;;;;;;;4998674;28;20975;-55
2023/03/18 03:25:23;;;;;;;2.20;1.60;;;;;;;;;;5034382;28;20943;-55
2023/03/18 03:27:49;;;;;;;2.40;1.70;;;;;;;;;;5036367;28;20992;-56
2023/03/18 03:30:15;;;;;;;3.20;1.30;;;;;;;;;;5034107;28;20477;-55
2023/03/18 03:32:41;;;;;;;1.73;1.23;;;;;;;;;;5033589;28;20432;-54
2023/03/18 03:35:08;;;;;;;4.40;1.40;;;;;;;;;;5036442;28;21176;-54
2023/03/18 03:37:34;;;;;;;2.10;1.23;;;;;;;;;;5012103;28;20569;-56
2023/03/18 03:40:00;;;;;;;2.60;1.77;;;;;;;;;;5040207;28;20433;-55
2023/03/18 03:42:26;;;;;;;2.23;1.27;;;;;;;;;;5034239;28;20965;-55
2023/03/18 03:44:52;;;;;;;1.77;1.47;;;;;;;;;;5035281;28;20960;-56
2023/03/18 03:47:18;;;;;;;2.30;1.90;;;;;;;;;;5007835;28;20749;-53
2023/03/18 03:49:44;;;;;;;3.03;1.10;;;;;;;;;;5033205;28;20434;-57
2023/03/18 03:52:10;;;;;;;10.10;1.40;;;;;;;;;;5011450;28;21004;-53
2023/03/18 03:54:37;;;;;;;1.93;1.13;;;;;;;;;;5036127;28;20434;-55
2023/03/18 03:57:03;;;;;;;1.67;1.40;;;;;;;;;;5008888;28;21305;-55
2023/03/18 03:59:29;;;;;;;2.20;1.77;;;;;;;;;;5034669;28;20526;-56
2023/03/18 04:01:55;;;;;;;1.53;1.20;;;;;;;;;;5006660;28;20488;-57
2023/03/18 04:04:22;;;;;;;2.73;1.50;;;;;;;;;;5034477;28;20434;-55
2023/03/18 04:06:48;;;;;;;7.43;1.83;;;;;;;;;;5007177;28;20465;-55
2023/03/18 04:09:16;;;;;;;1.77;1.30;;;;;;;;;;5040074;28;20475;-56
2023/03/18 04:11:43;;;;;;;1.50;1.10;;;;;;;;;;5034483;28;20499;-54
2023/03/18 04:14:09;;;;;;;3.10;1.33;;;;;;;;;;5038171;28;20466;-55
2023/03/18 04:16:35;;;;;;;2.73;1.20;;;;;;;;;;5032246;28;20811;-56
2023/03/18 04:19:01;;;;;;;4.07;1.33;;;;;;;;;;5033718;28;20426;-54
2023/03/18 04:21:29;;;;;;;2.17;1.90;;;;;;;;;;5010737;28;20438;-55
2023/03/18 04:23:56;;;;;;;1.70;1.10;;;;;;;;;;5035672;28;21048;-55
2023/03/18 04:26:23;;;;;;;4.03;1.40;;;;;;;;;;5010176;28;20449;-56
2023/03/18 04:28:49;;;;;;;1.70;1.20;;;;;;;;;;5021133;28;20450;-55
2023/03/18 04:31:15;;;;;;;4.17;2.17;;;;;;;;;;5032771;28;21295;-55
2023/03/18 04:33:42;;;;;;;2.20;1.50;;;;;;;;;;5030307;28;20426;-54
2023/03/18 04:36:08;;;;;;;2.37;1.47;;;;;;;;;;5036526;28;20874;-55
2023/03/18 04:38:34;;;;;;;1.80;1.27;;;;;;;;;;5008051;28;21158;-55
2023/03/18 04:41:00;;;;;;;2.57;1.20;;;;;;;;;;5034316;28;20424;-55
2023/03/18 04:43:26;;;;;;;2.90;1.10;;;;;;;;;;5002657;28;20442;-56
2023/03/18 04:45:52;;;;;;;13.23;1.97;;;;;;;;;;5028408;28;20442;-54
2023/03/18 04:48:18;;;;;;;2.60;1.40;;;;;;;;;;5016421;28;21192;-55
2023/03/18 04:50:45;;;;;;;3.00;1.80;;;;;;;;;;5029878;28;20951;-56
2023/03/18 04:53:11;;;;;;;1.83;1.33;;;;;;;;;;5021355;28;21046;-55
2023/03/18 04:55:37;;;;;;;2.30;1.87;;;;;;;;;;5020990;28;20453;-56
2023/03/18 04:58:06;;;;;;;2.13;1.50;;;;;;;;;;5018913;28;20479;-56
2023/03/18 05:00:32;;;;;;;2.03;1.73;;;;;;;;;;4982502;28;20199;-54
2023/03/18 05:02:58;;;;;;;2.00;1.60;;;;;;;;;;5035062;28;20438;-54
2023/03/18 05:05:24;;;;;;;2.83;1.70;;;;;;;;;;5007264;28;20461;-55
2023/03/18 05:07:51;;;;;;;2.23;1.43;;;;;;;;;;5034123;28;20445;-55
2023/03/18 05:10:18;;;;;;;3.10;1.47;;;;;;;;;;5012962;28;20824;-56
2023/03/18 05:12:44;;;;;;;1.60;1.30;;;;;;;;;;5039523;28;20430;-57
2023/03/18 05:15:10;;;;;;;2.33;1.80;;;;;;;;;;5009031;28;20439;-56
2023/03/18 05:17:36;;;;;;;2.00;1.63;;;;;;;;;;5031711;28;20478;-55
2023/03/18 05:20:03;;;;;;;3.47;1.30;;;;;;;;;;5027567;28;20450;-54
2023/03/18 05:22:29;;;;;;;1.90;1.50;;;;;;;;;;5032873;28;21154;-56
2023/03/18 05:24:55;;;;;;;3.23;1.80;;;;;;;;;;5004550;28;20493;-55
2023/03/18 05:27:21;;;;;;;3.73;1.30;;;;;;;;;;5031929;28;20438;-55
2023/03/18 05:29:47;;;;;;;4.30;1.87;;;;;;;;;;5002539;28;20507;-54
2023/03/18 05:32:16;;;;;;;1.60;1.40;;;;;;;;;;5030613;28;20915;-53
2023/03/18 05:34:42;;;;;;;5.20;1.53;;;;;;;;;;5027502;28;21078;-54
2023/03/18 05:37:09;;;;;;;2.10;1.37;;;;;;;;;;5029921;28;20507;-54
2023/03/18 05:39:35;;;;;;;5.30;1.17;;;;;;;;;;5034851;28;20442;-53
2023/03/18 05:42:03;;;;;;;1.67;1.13;;;;;;;;;;5010500;28;20479;-55
2023/03/18 05:44:29;;;;;;;2.60;1.57;;;;;;;;;;5035532;28;20983;-54
2023/03/18 05:46:55;;;;;;;2.93;1.50;;;;;;;;;;5000384;28;20522;-55
2023/03/18 05:49:22;;;;;;;2.37;1.27;;;;;;;;;;5029443;28;20442;-54
2023/03/18 05:51:48;;;;;;;2.10;1.50;;;;;;;;;;5028291;28;20542;-54
2023/03/18 05:54:15;;;;;;;2.63;1.67;;;;;;;;;;5033874;28;20453;-54
2023/03/18 05:56:42;;;;;;;2.23;1.57;;;;;;;;;;5003226;28;20498;-55
2023/03/18 05:59:08;;;;;;;2.20;1.43;;;;;;;;;;5025157;28;20529;-54
2023/03/18 06:01:34;;;;;;;2.03;1.20;;;;;;;;;;4983336;28;20520;-53
2023/03/18 06:04:00;;;;;;;3.07;1.47;;;;;;;;;;5034232;28;20971;-54
2023/03/18 06:06:27;;;;;;;4.33;1.27;;;;;;;;;;5006017;28;20457;-53
2023/03/18 06:08:55;;;;;;;3.10;1.43;;;;;;;;;;5032720;28;20447;-54
2023/03/18 06:11:21;;;;;;;5.40;2.10;;;;;;;;;;5004885;28;20427;-53
2023/03/18 06:13:48;;;;;;;1.53;1.37;;;;;;;;;;5035422;28;20492;-53
2023/03/18 06:16:15;;;;;;;4.30;1.40;;;;;;;;;;5018247;28;20486;-55
2023/03/18 06:18:41;;;;;;;4.63;2.00;;;;;;;;;;5027069;28;20443;-54
2023/03/18 06:21:08;;;;;;;3.60;1.20;;;;;;;;;;5028517;28;20449;-57
2023/03/18 06:23:34;;;;;;;5.33;1.60;;;;;;;;;;5031406;28;20530;-54
2023/03/18 06:26:00;;;;;;;2.43;1.50;;;;;;;;;;5005997;28;20525;-52
2023/03/18 06:28:26;;;;;;;2.33;1.60;;;;;;;;;;5033632;28;20435;-57
2023/03/18 06:31:01;;;;;;;2.70;1.60;;;;;;;;;;5004021;28;21144;-54
2023/03/18 06:33:29;;;;;;;4.70;2.20;;;;;;;;;;5026789;28;20446;-54
2023/03/18 06:36:01;;;;;;;3.10;1.77;;;;;;;;;;5018789;28;20435;-58
2023/03/18 06:38:31;;;;;;;2.60;1.70;;;;;;;;;;5025852;28;20525;-59
2023/03/18 06:40:58;;;;;;;2.60;1.63;;;;;;;;;;5017268;28;20736;-57
2023/03/18 06:43:25;;;;;;;3.37;1.33;;;;;;;;;;5032660;28;20984;-58
2023/03/18 06:45:51;;;;;;;2.23;1.50;;;;;;;;;;5035618;28;20422;-56
2023/03/18 06:48:18;;;;;;;4.20;1.60;;;;;;;;;;5038146;28;20427;-56
2023/03/18 06:50:44;;;;;;;5.63;2.33;;;;;;;;;;5031680;28;20456;-59
2023/03/18 06:53:11;;;;;;;2.80;1.87;;;;;;;;;;5021360;28;20981;-58
2023/03/18 06:55:37;;;;;;;1.93;1.37;;;;;;;;;;5042230;28;20831;-57
2023/03/18 06:58:04;;;;;;;3.10;1.40;;;;;;;;;;5019007;28;20477;-57
2023/03/18 07:00:47;;;;;;;4.00;1.67;;;;;;;;;;5034153;28;20457;-60
2023/03/18 07:03:17;;;;;;;2.70;1.90;;;;;;;;;;4976605;28;20446;-58
2023/03/18 07:05:43;;;;;;;1.93;1.27;;;;;;;;;;5035100;28;20452;-59
2023/03/18 07:08:09;;;;;;;5.30;1.40;;;;;;;;;;5008690;28;20185;-59
2023/03/18 07:10:35;;;;;;;2.77;1.50;;;;;;;;;;5033531;28;20430;-58
2023/03/18 07:13:01;;;;;;;2.80;1.20;;;;;;;;;;5021908;28;20450;-60
2023/03/18 07:15:27;;;;;;;2.67;1.30;;;;;;;;;;5034838;28;20442;-58
2023/03/18 07:17:53;;;;;;;2.87;1.10;;;;;;;;;;5008688;28;20490;-58
2023/03/18 07:20:21;;;;;;;3.50;1.30;;;;;;;;;;5038774;28;20963;-58
2023/03/18 07:22:47;;;;;;;2.73;1.97;;;;;;;;;;5014796;28;20545;-58
2023/03/18 07:25:13;;;;;;;4.17;1.37;;;;;;;;;;5038871;28;20477;-58
2023/03/18 07:27:39;;;;;;;1.80;1.30;;;;;;;;;;5036538;28;20446;-59
2023/03/18 07:30:05;;;;;;;4.80;1.40;;;;;;;;;;5039635;28;20426;-58
2023/03/18 07:32:31;;;;;;;5.07;1.40;;;;;;;;;;5004756;28;21482;-58
2023/03/18 07:34:58;;;;;;;3.70;1.30;;;;;;;;;;5034228;28;20471;-59
2023/03/18 07:37:24;;;;;;;2.43;1.40;;;;;;;;;;5007570;28;21351;-59
2023/03/18 07:39:51;;;;;;;1.70;1.20;;;;;;;;;;5037315;28;20430;-61
2023/03/18 07:42:18;;;;;;;2.77;1.13;;;;;;;;;;5030617;28;20442;-60
2023/03/18 07:44:44;;;;;;;2.57;1.70;;;;;;;;;;5041051;28;20431;-59
2023/03/18 07:47:10;;;;;;;1.53;1.00;;;;;;;;;;5011681;28;20924;-59
2023/03/18 07:49:35;;;;;;;1.63;1.00;;;;;;;;;;5038518;28;21128;-60
2023/03/18 07:52:02;;;;;;;2.80;1.10;;;;;;;;;;5011478;28;20424;-61
2023/03/18 07:54:28;;;;;;;3.73;1.20;;;;;;;;;;5040369;28;20530;-59
2023/03/18 07:56:54;;;;;;;1.70;1.10;;;;;;;;;;5013146;28;20832;-61
2023/03/18 07:59:20;;;;;;;2.30;1.30;;;;;;;;;;5040724;28;20430;-60
2023/03/18 08:01:47;;;;;;;2.93;1.80;;;;;;;;;;5037800;28;20439;-60
2023/03/18 08:04:13;;;;;;;1.80;1.20;;;;;;;;;;5035861;28;20422;-60
2023/03/18 08:06:40;;;;;;;2.03;1.27;;;;;;;;;;5009080;28;20448;-59
2023/03/18 08:09:06;;;;;;;3.73;1.17;;;;;;;;;;5029584;28;20534;-60
2023/03/18 08:11:32;;;;;;;2.90;0.90;;;;;;;;;;5031478;28;20505;-60
2023/03/18 08:13:59;;;;;;;1.63;1.00;;;;;;;;;;5041114;28;20525;-60
2023/03/18 08:16:25;;;;;;;2.40;1.07;;;;;;;;;;5009070;28;20450;-59
2023/03/18 08:18:51;;;;;;;1.93;1.37;;;;;;;;;;5036623;28;22069;-60
2023/03/18 08:21:18;;;;;;;2.80;1.37;;;;;;;;;;5028078;28;20844;-60
2023/03/18 08:23:44;;;;;;;2.80;1.47;;;;;;;;;;5033442;28;20450;-59
2023/03/18 08:26:10;;;;;;;2.57;1.40;;;;;;;;;;5013184;28;20451;-60
2023/03/18 08:28:37;;;;;;;3.17;1.10;;;;;;;;;;5023332;28;20430;-60
2023/03/18 08:31:04;;;;;;;1.53;1.10;;;;;;;;;;5017991;28;20434;-60
2023/03/18 08:33:30;;;;;;;4.20;1.00;;;;;;;;;;5020506;28;20462;-59
2023/03/18 08:35:56;;;;;;;1.93;1.13;;;;;;;;;;5022421;28;20636;-57
2023/03/18 08:38:23;;;;;;;2.50;1.10;;;;;;;;;;5021284;28;21536;-60
2023/03/18 08:40:57;;;;;;;1.63;1.10;;;;;;;;;;5024701;28;20449;-60
2023/03/18 08:43:27;;;;;;;4.07;1.30;;;;;;;;;;5007549;28;20442;-59
2023/03/18 08:45:53;;;;;;;2.73;1.50;;;;;;;;;;5008094;28;20453;-60
2023/03/18 08:48:20;;;;;;;3.73;1.13;;;;;;;;;;5025765;28;21635;-60
2023/03/18 08:50:46;;;;;;;1.97;1.17;;;;;;;;;;5032286;28;20502;-60
2023/03/18 08:53:12;;;;;;;2.37;1.13;;;;;;;;;;5029496;28;20526;-59
2023/03/18 08:55:38;;;;;;;2.60;1.20;;;;;;;;;;5038046;28;20436;-60
2023/03/18 08:58:04;;;;;;;3.63;1.13;;;;;;;;;;5020027;28;20987;-59
2023/03/18 09:00:31;;;;;;;5.93;1.40;;;;;;;;;;5028254;28;20521;-58
2023/03/18 09:02:57;;;;;;;3.97;1.20;;;;;;;;;;5054460;28;20430;-60
2023/03/18 09:05:23;;;;;;;6.80;1.53;;;;;;;;;;5038740;28;20506;-60
2023/03/18 09:07:50;;;;;;;2.10;1.10;;;;;;;;;;5045371;28;20958;-60
2023/03/18 09:10:17;;;;;;;4.07;1.20;;;;;;;;;;5035799;28;20429;-61
2023/03/18 09:12:44;;;;;;;3.70;1.50;;;;;;;;;;5035123;28;20468;-63
2023/03/18 09:15:11;;;;;;;2.97;1.50;;;;;;;;;;5007067;28;20457;-60
2023/03/18 09:17:39;;;;;;;3.33;1.00;;;;;;;;;;5006508;28;20470;-62
2023/03/18 09:20:09;;;;;;;2.70;1.20;;;;;;;;;;5031081;28;20521;-60
2023/03/18 09:22:35;;;;;;;2.53;1.00;;;;;;;;;;5014542;28;20493;-61
2023/03/18 09:25:02;;;;;;;1.73;0.90;;;;;;;;;;5028784;28;20454;-59
2023/03/18 09:27:28;;;;;;;3.00;1.37;;;;;;;;;;5002382;28;20439;-60
2023/03/18 09:29:55;;;;;;;3.30;1.30;;;;;;;;;;5027430;28;20442;-59
2023/03/18 09:32:21;;;;;;;2.67;1.33;;;;;;;;;;4991434;28;20457;-60
2023/03/18 09:34:47;;;;;;;2.20;0.93;;;;;;;;;;5007086;28;20658;-61
2023/03/18 09:37:13;;;;;;;3.10;1.60;;;;;;;;;;5009330;28;20481;-60
2023/03/18 09:39:40;;;;;;;2.70;1.50;;;;;;;;;;5019898;28;20456;-60
2023/03/18 09:42:25;;;;;;;5.30;1.57;;;;;;;;;;5003502;28;20561;-61
2023/03/18 09:45:14;;;;;;;2.47;1.00;;;;;;;;;;5032558;28;20503;-59
2023/03/18 09:47:59;;;;;;;2.77;1.20;;;;;;;;;;5022802;28;21135;-60
2023/03/18 09:50:42;;;;;;;1.97;1.17;;;;;;;;;;5031263;28;20440;-61
2023/03/18 09:53:11;;;;;;;3.07;1.30;;;;;;;;;;5019879;28;20959;-60
2023/03/18 09:55:45;;;;;;;2.20;1.00;;;;;;;;;;5020841;28;20439;-60
2023/03/18 09:58:21;;;;;;;3.23;2.40;;;;;;;;;;5020375;28;20482;-60
2023/03/18 10:00:53;;;;;;;1.90;1.20;;;;;;;;;;4995339;28;20434;-62
2023/03/18 10:03:27;;;;;;;5.47;1.70;;;;;;;;;;5033402;28;20525;-59
2023/03/18 10:05:55;;;;;;;2.70;2.13;;;;;;;;;;5003015;28;20441;-58
2023/03/18 10:08:36;;;;;;;2.70;1.70;;;;;;;;;;5031600;28;20469;-60
2023/03/18 10:11:03;;;;;;;3.83;1.87;;;;;;;;;;4990538;28;20441;-60
2023/03/18 10:13:39;;;;;;;2.53;1.53;;;;;;;;;;5027857;28;20438;-60
2023/03/18 10:16:06;;;;;;;2.80;1.80;;;;;;;;;;5005813;28;20453;-60
2023/03/18 10:18:38;;;;;;;3.60;1.30;;;;;;;;;;5036249;28;20919;-59
2023/03/18 10:21:14;;;;;;;4.10;1.37;;;;;;;;;;4996774;28;20482;-58
2023/03/18 10:23:59;;;;;;;3.03;1.50;;;;;;;;;;5040813;28;20449;-59
2023/03/18 10:26:32;;;;;;;1.97;1.37;;;;;;;;;;5001157;28;20525;-59
2023/03/18 10:28:58;;;;;;;3.30;1.53;;;;;;;;;;5033469;28;21239;-60
2023/03/18 10:31:31;;;;;;;2.27;1.37;;;;;;;;;;5007070;28;21646;-59
2023/03/18 10:33:58;;;;;;;3.10;1.20;;;;;;;;;;5032217;28;20798;-60
2023/03/18 10:36:43;;;;;;;2.60;1.30;;;;;;;;;;5007974;28;20527;-57
2023/03/18 10:39:10;;;;;;;2.67;1.27;;;;;;;;;;5003471;28;20438;-60
2023/03/18 10:41:37;;;;;;;2.17;1.17;;;;;;;;;;5018478;28;20450;-59
2023/03/18 10:44:07;;;;;;;3.10;1.17;;;;;;;;;;4980829;28;20956;-59
2023/03/18 10:46:33;;;;;;;3.70;1.60;;;;;;;;;;4997418;28;20488;-58
2023/03/18 10:49:16;;;;;;;2.73;1.30;;;;;;;;;;5021061;28;20492;-57
2023/03/18 10:51:53;;;;;;;4.00;1.30;;;;;;;;;;5015690;28;20973;-59
2023/03/18 10:54:31;;;;;;;3.20;1.60;;;;;;;;;;5031220;28;20465;-60
2023/03/18 10:57:02;;;;;;;3.80;1.20;;;;;;;;;;4979842;28;20478;-60
2023/03/18 10:59:28;;;;;;;5.30;1.30;;;;;;;;;;5032146;28;20497;-58
2023/03/18 11:01:57;;;;;;;2.17;1.40;;;;;;;;;;5007233;28;20439;-61
2023/03/18 11:04:23;;;;;;;2.93;1.23;;;;;;;;;;5033899;28;20479;-59
2023/03/18 11:06:52;;;;;;;2.33;1.00;;;;;;;;;;5015360;28;20452;-60
2023/03/18 11:09:21;;;;;;;5.40;1.57;;;;;;;;;;5038504;28;20437;-59
2023/03/18 11:11:48;;;;;;;5.27;1.40;;;;;;;;;;5008960;28;20856;-59
2023/03/18 11:14:19;;;;;;;4.03;1.37;;;;;;;;;;5034984;28;20464;-58
2023/03/18 11:16:48;;;;;;;1.80;1.10;;;;;;;;;;5035033;28;20497;-59
2023/03/18 11:19:23;;;;;;;3.00;1.20;;;;;;;;;;5031849;28;20461;-59
2023/03/18 11:21:49;;;;;;;2.87;1.20;;;;;;;;;;5011394;28;20441;-59
2023/03/18 11:24:34;;;;;;;1.97;1.40;;;;;;;;;;5058402;28;21034;-61
2023/03/18 11:27:00;;;;;;;2.40;1.30;;;;;;;;;;5004206;28;20446;-59
2023/03/18 11:29:27;;;;;;;2.10;1.27;;;;;;;;;;5035706;28;20449;-59
2023/03/18 11:31:57;;;;;;;1.70;1.13;;;;;;;;;;5004995;28;20200;-59
2023/03/18 11:34:30;;;;;;;2.67;1.20;;;;;;;;;;5034621;28;20445;-61
2023/03/18 11:37:07;;;;;;;1.80;1.20;;;;;;;;;;5030089;28;22954;-57
2023/03/18 11:39:37;;;;;;;5.37;1.23;;;;;;;;;;5032792;28;20434;-59
2023/03/18 11:42:05;;;;;;;2.07;1.00;;;;;;;;;;5002402;28;20465;-61
2023/03/18 11:44:31;;;;;;;2.47;1.30;;;;;;;;;;5030385;28;20430;-60
2023/03/18 11:46:57;;;;;;;3.07;1.13;;;;;;;;;;5024798;28;20437;-59
2023/03/18 11:49:24;;;;;;;3.37;1.20;;;;;;;;;;5026619;28;20449;-61
2023/03/18 11:52:07;;;;;;;2.10;1.20;;;;;;;;;;5005811;28;20458;-59
2023/03/18 11:54:33;;;;;;;2.80;1.13;;;;;;;;;;5033119;28;20439;-59
2023/03/18 11:57:09;;;;;;;8.07;1.43;;;;;;;;;;5009849;28;22577;-61
2023/03/18 11:59:53;;;;;;;2.10;1.23;;;;;;;;;;5037230;28;20533;-60
2023/03/18 12:02:38;;;;;;;3.73;1.63;;;;;;;;;;4997638;28;20481;-58
2023/03/18 12:05:16;;;;;;;2.33;1.27;;;;;;;;;;5022366;28;20434;-61
2023/03/18 12:07:48;;;;;;;2.77;1.27;;;;;;;;;;5028423;28;20437;-62
2023/03/18 12:10:19;;;;;;;2.97;1.30;;;;;;;;;;5039656;28;20462;-59
2023/03/18 12:12:58;;;;;;;2.43;1.30;;;;;;;;;;5010042;28;21132;-59
2023/03/18 12:15:27;;;;;;;3.70;1.80;;;;;;;;;;5035331;28;20452;-59
2023/03/18 12:18:04;;;;;;;3.20;1.50;;;;;;;;;;5032168;28;20480;-61
2023/03/18 12:20:39;;;;;;;2.40;1.33;;;;;;;;;;5019241;28;20971;-61
2023/03/18 12:23:43;;;;;;;2.90;1.33;;;;;;;;;;5034862;28;20438;-61
2023/03/18 12:26:09;;;;;;;2.83;1.60;;;;;;;;;;5039079;28;20663;-60
2023/03/18 12:28:46;;;;;;;4.30;1.80;;;;;;;;;;5023262;28;20443;-60
2023/03/18 12:31:27;;;;;;;2.20;1.30;;;;;;;;;;5027869;28;20195;-61
2023/03/18 12:33:57;;;;;;;5.67;1.47;;;;;;;;;;5014854;28;20959;-61
2023/03/18 12:36:27;;;;;;;2.73;1.30;;;;;;;;;;5051058;28;21109;-58
2023/03/18 12:39:14;;;;;;;4.43;1.43;;;;;;;;;;5024517;28;20450;-61
2023/03/18 12:41:56;;;;;;;2.03;1.00;;;;;;;;;;5040160;28;20465;-60
2023/03/18 12:44:26;;;;;;;4.90;2.10;;;;;;;;;;5014929;28;20745;-60
2023/03/18 12:47:14;;;;;;;3.53;1.67;;;;;;;;;;5015721;28;21423;-61
2023/03/18 12:50:03;;;;;;;2.70;1.40;;;;;;;;;;4988088;28;20445;-61
2023/03/18 12:52:29;;;;;;;2.27;1.27;;;;;;;;;;5021997;28;20585;-61
2023/03/18 12:55:04;;;;;;;2.50;1.37;;;;;;;;;;5029412;28;20453;-60
2023/03/18 12:57:48;;;;;;;2.77;1.67;;;;;;;;;;5030781;28;21136;-61
2023/03/18 13:00:17;;;;;;;4.87;1.90;;;;;;;;;;5029112;28;20517;-61
2023/03/18 13:02:46;;;;;;;10.30;2.07;;;;;;;;;;5000284;28;20448;-60
2023/03/18 13:05:19;;;;;;;3.33;1.60;;;;;;;;;;5029891;28;20508;-60
2023/03/18 13:07:52;;;;;;;2.03;1.20;;;;;;;;;;4997222;28;20455;-61
2023/03/18 13:10:19;;;;;;;2.97;1.90;;;;;;;;;;5029063;28;20435;-61
2023/03/18 13:12:46;;;;;;;4.50;1.60;;;;;;;;;;5014786;28;20442;-61
2023/03/18 13:15:29;;;;;;;3.93;1.63;;;;;;;;;;5019274;28;20439;-60
2023/03/18 13:18:04;;;;;;;2.90;1.17;;;;;;;;;;5016537;28;20735;-60
2023/03/18 13:20:33;;;;;;;3.37;1.63;;;;;;;;;;5025855;28;20445;-60
2023/03/18 13:23:08;;;;;;;2.73;1.20;;;;;;;;;;5025034;28;20446;-59
2023/03/18 13:25:47;;;;;;;2.77;1.07;;;;;;;;;;5031271;28;20453;-59
2023/03/18 13:28:19;;;;;;;2.50;0.93;;;;;;;;;;5026515;28;20437;-59
2023/03/18 13:31:00;;;;;;;4.73;1.00;;;;;;;;;;5032950;28;20445;-60
2023/03/18 13:33:46;;;;;;;3.60;1.40;;;;;;;;;;5034565;28;21267;-59
2023/03/18 13:36:31;;;;;;;3.50;1.70;;;;;;;;;;5038745;28;20798;-59
2023/03/18 13:39:03;;;;;;;3.20;1.40;;;;;;;;;;4975048;28;20532;-60
2023/03/18 13:41:31;;;;;;;2.00;1.10;;;;;;;;;;5030644;28;20864;-59
2023/03/18 13:43:58;;;;;;;2.67;1.43;;;;;;;;;;5011952;28;21119;-60
2023/03/18 13:46:26;;;;;;;4.30;1.60;;;;;;;;;;5030298;28;20449;-56
2023/03/18 13:49:01;;;;;;;2.93;1.53;;;;;;;;;;5031621;28;20457;-58
2023/03/18 13:51:28;;;;;;;3.40;1.50;;;;;;;;;;5031954;28;20455;-59
2023/03/18 13:53:54;;;;;;;2.07;1.20;;;;;;;;;;5006281;28;20442;-58
2023/03/18 13:56:27;;;;;;;2.60;2.07;;;;;;;;;;5033631;28;20430;-58
2023/03/18 13:58:55;;;;;;;3.53;1.27;;;;;;;;;;5028501;28;20434;-56
2023/03/18 14:01:27;;;;;;;2.50;1.30;;;;;;;;;;5037593;28;20435;-58
2023/03/18 14:03:54;;;;;;;2.63;1.40;;;;;;;;;;5014538;28;20445;-58
2023/03/18 14:06:35;;;;;;;4.17;1.70;;;;;;;;;;5033482;28;20441;-58
2023/03/18 14:09:20;;;;;;;2.83;1.20;;;;;;;;;;5035897;28;20511;-58
2023/03/18 14:12:23;;;;;;;2.30;1.67;;;;;;;;;;5034727;28;20838;-59
2023/03/18 14:14:53;;;;;;;2.90;1.13;;;;;;;;;;5021907;28;20453;-58
2023/03/18 14:17:26;;;;;;;4.20;1.50;;;;;;;;;;5011399;28;20763;-57
2023/03/18 14:19:53;;;;;;;2.27;1.00;;;;;;;;;;5032737;28;20449;-57
2023/03/18 14:22:22;;;;;;;1.83;1.03;;;;;;;;;;5007542;28;20890;-58
2023/03/18 14:25:07;;;;;;;4.13;1.20;;;;;;;;;;5039063;28;20979;-57
2023/03/18 14:27:43;;;;;;;3.50;1.70;;;;;;;;;;5029203;28;20419;-58
2023/03/18 14:30:28;;;;;;;3.87;1.50;;;;;;;;;;5035107;28;20453;-59
2023/03/18 14:33:17;;;;;;;2.80;1.70;;;;;;;;;;5009802;28;20450;-58
2023/03/18 14:35:54;;;;;;;2.00;1.23;;;;;;;;;;5032861;28;20430;-58
2023/03/18 14:38:20;;;;;;;4.63;1.70;;;;;;;;;;5015134;28;20478;-57
2023/03/18 14:40:48;;;;;;;5.80;3.93;;;;;;;;;;5036881;28;20973;-58
2023/03/18 14:43:17;;;;;;;3.67;1.50;;;;;;;;;;5014668;28;20449;-57
2023/03/18 14:45:43;;;;;;;4.63;1.23;;;;;;;;;;5037839;28;20439;-58
2023/03/18 14:48:16;;;;;;;3.53;1.70;;;;;;;;;;4987444;28;20510;-58
2023/03/18 14:50:46;;;;;;;9.07;3.10;;;;;;;;;;5030720;28;20431;-57
2023/03/18 14:53:14;;;;;;;6.33;2.17;;;;;;;;;;5000908;28;20443;-58
2023/03/18 14:55:40;;;;;;;2.20;1.23;;;;;;;;;;5033719;28;20489;-56